BEL4JF LDDU-EBBR
Flight info
| Callsign | BEL4JF |
|---|---|
| Flight time | N/A |
| Altitude | 38000 |
| Route | SOPOK Y863 ROPUV L607 EMGOD DCT MOVUM T109 HAREM Z74 LAMPU DCT NOMBO Y161 MAH DCT VAVOR DCT RADIZ DCT GIMIX DCT SABAD DCT SIPAL L607 |
| Aircraft | A20N/M-DE3FGHIJ1LORVWY/HB1G1 |
Departure
| Time | 2026-04-29 16:45 |
|---|---|
| Airport | Dubrovnik Ruđer Bošković Airport (LDDU) |
Arrival
| Time | N/A |
|---|---|
| Airport | Brussels Airport (EBBR) |
| Time | Latitude | Longitude | Altitude | Speed | Heading |
|---|---|---|---|---|---|
| 2026-04-29 16:11 | 42.56085 | 18.26301 | 521 ft | 0 kts | 208° |
| 2026-04-29 16:37 | 42.56088 | 18.26303 | 521 ft | 2 kts | 208° |
| 2026-04-29 16:37 | 42.56101 | 18.26313 | 521 ft | 2 kts | 208° |
| 2026-04-29 16:37 | 42.56110 | 18.26319 | 521 ft | 1 kts | 208° |
| 2026-04-29 16:38 | 42.56124 | 18.26327 | 522 ft | 2 kts | 183° |
| 2026-04-29 16:38 | 42.56139 | 18.26324 | 522 ft | 2 kts | 156° |
| 2026-04-29 16:38 | 42.56152 | 18.26312 | 522 ft | 2 kts | 128° |
| 2026-04-29 16:38 | 42.56156 | 18.26304 | 522 ft | 1 kts | 114° |
| 2026-04-29 16:39 | 42.56158 | 18.26299 | 522 ft | 0 kts | 118° |
| 2026-04-29 16:39 | 42.56157 | 18.26299 | 522 ft | 0 kts | 118° |
| 2026-04-29 16:39 | 42.56157 | 18.26300 | 522 ft | 0 kts | 118° |
| 2026-04-29 16:39 | 42.56150 | 18.26319 | 522 ft | 6 kts | 118° |
| 2026-04-29 16:40 | 42.56112 | 18.26413 | 521 ft | 13 kts | 118° |
| 2026-04-29 16:40 | 42.56065 | 18.26529 | 520 ft | 14 kts | 118° |
| 2026-04-29 16:40 | 42.56013 | 18.26656 | 518 ft | 16 kts | 117° |
| 2026-04-29 16:40 | 42.55960 | 18.26797 | 515 ft | 17 kts | 118° |
| 2026-04-29 16:41 | 42.55899 | 18.26950 | 512 ft | 18 kts | 118° |
| 2026-04-29 16:41 | 42.55828 | 18.27112 | 509 ft | 20 kts | 122° |
| 2026-04-29 16:41 | 42.55764 | 18.27288 | 505 ft | 21 kts | 116° |
| 2026-04-29 16:41 | 42.55692 | 18.27470 | 502 ft | 22 kts | 117° |
| 2026-04-29 16:42 | 42.55619 | 18.27658 | 498 ft | 22 kts | 117° |
| 2026-04-29 16:42 | 42.55541 | 18.27847 | 496 ft | 22 kts | 119° |
| 2026-04-29 16:42 | 42.55471 | 18.28027 | 495 ft | 15 kts | 115° |
| 2026-04-29 16:42 | 42.55459 | 18.28149 | 494 ft | 7 kts | 50° |
| 2026-04-29 16:43 | 42.55503 | 18.28180 | 493 ft | 6 kts | 14° |
| 2026-04-29 16:43 | 42.55570 | 18.28203 | 492 ft | 12 kts | 10° |
| 2026-04-29 16:43 | 42.55585 | 18.28204 | 492 ft | 0 kts | 355° |
| 2026-04-29 16:43 | 42.55600 | 18.28172 | 492 ft | 15 kts | 296° |
| 2026-04-29 16:44 | 42.55709 | 18.27889 | 495 ft | 63 kts | 298° |
| 2026-04-29 16:44 | 42.56020 | 18.27098 | 511 ft | 123 kts | 298° |
| 2026-04-29 16:44 | 42.56509 | 18.25879 | 527 ft | 170 kts | 296° |
| 2026-04-29 16:44 | 42.57113 | 18.24359 | 793 ft | 187 kts | 296° |
| 2026-04-29 16:45 | 42.57914 | 18.22989 | 1324 ft | 190 kts | 327° |
| 2026-04-29 16:45 | 42.59144 | 18.22391 | 1972 ft | 188 kts | 345° |
| 2026-04-29 16:45 | 42.60306 | 18.21603 | 2492 ft | 195 kts | 316° |
| 2026-04-29 16:45 | 42.61227 | 18.20191 | 2911 ft | 207 kts | 313° |
| 2026-04-29 16:46 | 42.62301 | 18.18744 | 3158 ft | 229 kts | 317° |
| 2026-04-29 16:46 | 42.63503 | 18.17237 | 3535 ft | 246 kts | 317° |
| 2026-04-29 16:46 | 42.64804 | 18.15602 | 3935 ft | 263 kts | 316° |
| 2026-04-29 16:46 | 42.66171 | 18.13859 | 4542 ft | 271 kts | 315° |
| 2026-04-29 16:47 | 42.67533 | 18.12105 | 5336 ft | 272 kts | 315° |
| 2026-04-29 16:47 | 42.68876 | 18.10361 | 6131 ft | 272 kts | 314° |
| 2026-04-29 16:47 | 42.70251 | 18.08566 | 6918 ft | 274 kts | 314° |
| 2026-04-29 16:47 | 42.71617 | 18.06777 | 7702 ft | 275 kts | 314° |
| 2026-04-29 16:48 | 42.72966 | 18.05007 | 8467 ft | 276 kts | 314° |
| 2026-04-29 16:48 | 42.74340 | 18.03202 | 9223 ft | 277 kts | 314° |
| 2026-04-29 16:48 | 42.75737 | 18.01365 | 9978 ft | 279 kts | 314° |
| 2026-04-29 16:48 | 42.77126 | 17.99537 | 10623 ft | 284 kts | 314° |
| 2026-04-29 16:49 | 42.78590 | 17.97607 | 10964 ft | 301 kts | 314° |
| 2026-04-29 16:49 | 42.80139 | 17.95566 | 11308 ft | 316 kts | 314° |
| 2026-04-29 16:49 | 42.81720 | 17.93484 | 11909 ft | 322 kts | 314° |
| 2026-04-29 16:49 | 42.83322 | 17.91374 | 12637 ft | 323 kts | 314° |
| 2026-04-29 16:50 | 42.84933 | 17.89248 | 13348 ft | 324 kts | 314° |
| 2026-04-29 16:50 | 42.86572 | 17.87082 | 14030 ft | 326 kts | 314° |
| 2026-04-29 16:50 | 42.88176 | 17.84960 | 14682 ft | 328 kts | 314° |
| 2026-04-29 16:50 | 42.89832 | 17.82769 | 15313 ft | 331 kts | 314° |
| 2026-04-29 16:51 | 42.91474 | 17.80596 | 15931 ft | 333 kts | 314° |
| 2026-04-29 16:51 | 42.93129 | 17.78403 | 16536 ft | 336 kts | 314° |
| 2026-04-29 16:51 | 42.94820 | 17.76161 | 17149 ft | 338 kts | 314° |
| 2026-04-29 16:51 | 42.96488 | 17.73946 | 17738 ft | 340 kts | 314° |
| 2026-04-29 16:52 | 42.98176 | 17.71703 | 18319 ft | 342 kts | 314° |
| 2026-04-29 16:52 | 42.99878 | 17.69439 | 18884 ft | 344 kts | 314° |
| 2026-04-29 16:52 | 43.01592 | 17.67157 | 19445 ft | 346 kts | 314° |
| 2026-04-29 16:52 | 43.03319 | 17.64856 | 19993 ft | 348 kts | 314° |
| 2026-04-29 16:53 | 43.05063 | 17.62532 | 20531 ft | 350 kts | 313° |
| 2026-04-29 16:53 | 43.06807 | 17.60204 | 21056 ft | 352 kts | 314° |
| 2026-04-29 16:53 | 43.08563 | 17.57860 | 21564 ft | 355 kts | 313° |
| 2026-04-29 16:53 | 43.10334 | 17.55492 | 21951 ft | 360 kts | 313° |
| 2026-04-29 16:54 | 43.12149 | 17.53080 | 22405 ft | 364 kts | 313° |
| 2026-04-29 16:54 | 43.13975 | 17.50653 | 22896 ft | 366 kts | 313° |
| 2026-04-29 16:54 | 43.15798 | 17.48224 | 23369 ft | 368 kts | 313° |
| 2026-04-29 16:54 | 43.17627 | 17.45780 | 23831 ft | 370 kts | 313° |
| 2026-04-29 16:55 | 43.19471 | 17.43310 | 24264 ft | 372 kts | 313° |
| 2026-04-29 16:55 | 43.21321 | 17.40828 | 24674 ft | 375 kts | 313° |
| 2026-04-29 16:55 | 43.23176 | 17.38339 | 25089 ft | 377 kts | 314° |
| 2026-04-29 16:55 | 43.25187 | 17.36000 | 25476 ft | 381 kts | 319° |
| 2026-04-29 16:56 | 43.27197 | 17.33583 | 25885 ft | 381 kts | 313° |
| 2026-04-29 16:56 | 43.29073 | 17.31050 | 26285 ft | 382 kts | 312° |
| 2026-04-29 16:56 | 43.30965 | 17.28454 | 26645 ft | 385 kts | 312° |
| 2026-04-29 16:56 | 43.32873 | 17.25844 | 26997 ft | 387 kts | 312° |
| 2026-04-29 16:57 | 43.34787 | 17.23240 | 27354 ft | 389 kts | 312° |
| 2026-04-29 16:57 | 43.36716 | 17.20621 | 27701 ft | 391 kts | 312° |
| 2026-04-29 16:57 | 43.38659 | 17.17989 | 28023 ft | 393 kts | 313° |
| 2026-04-29 16:57 | 43.40599 | 17.15361 | 28330 ft | 395 kts | 313° |
| 2026-04-29 16:58 | 43.42569 | 17.12698 | 28639 ft | 397 kts | 313° |
| 2026-04-29 16:58 | 43.44539 | 17.10030 | 28959 ft | 399 kts | 313° |
| 2026-04-29 16:58 | 43.46514 | 17.07356 | 29274 ft | 400 kts | 313° |
| 2026-04-29 16:58 | 43.48498 | 17.04669 | 29593 ft | 401 kts | 313° |
| 2026-04-29 16:59 | 43.50482 | 17.01977 | 29883 ft | 403 kts | 313° |
| 2026-04-29 16:59 | 43.52473 | 16.99275 | 30107 ft | 406 kts | 313° |
| 2026-04-29 16:59 | 43.54519 | 16.96496 | 30249 ft | 410 kts | 313° |
| 2026-04-29 16:59 | 43.56921 | 16.93232 | 30499 ft | 413 kts | 313° |
| 2026-04-29 17:00 | 43.58988 | 16.90420 | 30732 ft | 415 kts | 313° |
| 2026-04-29 17:00 | 43.61143 | 16.87738 | 30950 ft | 419 kts | 319° |
| 2026-04-29 17:00 | 43.63473 | 16.85306 | 31281 ft | 418 kts | 320° |
| 2026-04-29 17:00 | 43.65801 | 16.82938 | 31623 ft | 417 kts | 320° |
| 2026-04-29 17:01 | 43.68105 | 16.80587 | 31943 ft | 415 kts | 320° |
| 2026-04-29 17:01 | 43.70433 | 16.78194 | 32250 ft | 414 kts | 320° |
| 2026-04-29 17:01 | 43.72713 | 16.75835 | 32542 ft | 413 kts | 319° |
| 2026-04-29 17:01 | 43.75019 | 16.73439 | 32810 ft | 412 kts | 319° |
| 2026-04-29 17:02 | 43.77290 | 16.71069 | 33053 ft | 411 kts | 319° |
| 2026-04-29 17:02 | 43.79581 | 16.68671 | 33276 ft | 411 kts | 319° |
| 2026-04-29 17:02 | 43.81853 | 16.66291 | 33508 ft | 411 kts | 319° |
| 2026-04-29 17:02 | 43.84137 | 16.63895 | 33746 ft | 410 kts | 319° |
| 2026-04-29 17:03 | 43.86384 | 16.61534 | 33988 ft | 409 kts | 319° |
| 2026-04-29 17:03 | 43.88660 | 16.59138 | 34227 ft | 408 kts | 319° |
| 2026-04-29 17:03 | 43.90920 | 16.56757 | 34437 ft | 407 kts | 319° |
| 2026-04-29 17:03 | 43.93172 | 16.54382 | 34642 ft | 406 kts | 319° |
| 2026-04-29 17:04 | 43.95413 | 16.52015 | 34792 ft | 406 kts | 319° |
| 2026-04-29 17:04 | 43.97636 | 16.49667 | 34939 ft | 405 kts | 319° |
| 2026-04-29 17:04 | 43.99905 | 16.47263 | 35084 ft | 405 kts | 319° |
| 2026-04-29 17:04 | 44.02143 | 16.44894 | 35211 ft | 405 kts | 319° |
| 2026-04-29 17:05 | 44.04375 | 16.42526 | 35352 ft | 404 kts | 319° |
| 2026-04-29 17:05 | 44.06599 | 16.40167 | 35504 ft | 403 kts | 319° |
| 2026-04-29 17:05 | 44.08826 | 16.37802 | 35644 ft | 402 kts | 319° |
| 2026-04-29 17:05 | 44.11041 | 16.35450 | 35766 ft | 402 kts | 319° |
| 2026-04-29 17:06 | 44.13244 | 16.33116 | 35897 ft | 402 kts | 318° |
| 2026-04-29 17:06 | 44.15477 | 16.30740 | 36055 ft | 400 kts | 318° |
| 2026-04-29 17:06 | 44.17695 | 16.28375 | 36185 ft | 400 kts | 318° |
| 2026-04-29 17:06 | 44.19892 | 16.26030 | 36323 ft | 399 kts | 318° |
| 2026-04-29 17:07 | 44.22087 | 16.23683 | 36428 ft | 399 kts | 318° |
| 2026-04-29 17:07 | 44.23559 | 16.22111 | 36493 ft | 399 kts | 318° |
| 2026-04-29 17:07 | 44.26482 | 16.18981 | 36676 ft | 399 kts | 318° |
| 2026-04-29 17:07 | 44.28680 | 16.16625 | 36801 ft | 398 kts | 318° |
| 2026-04-29 17:08 | 44.30869 | 16.14279 | 36923 ft | 398 kts | 319° |
| 2026-04-29 17:08 | 44.33065 | 16.11921 | 37044 ft | 398 kts | 319° |
| 2026-04-29 17:08 | 44.35292 | 16.09529 | 37176 ft | 397 kts | 319° |
| 2026-04-29 17:08 | 44.37472 | 16.07184 | 37325 ft | 396 kts | 318° |
| 2026-04-29 17:09 | 44.39658 | 16.04832 | 37452 ft | 396 kts | 319° |
| 2026-04-29 17:09 | 44.41840 | 16.02480 | 37548 ft | 396 kts | 318° |
| 2026-04-29 17:09 | 44.46171 | 15.97806 | 37720 ft | 396 kts | 318° |
| 2026-04-29 17:10 | 44.50515 | 15.93109 | 37856 ft | 396 kts | 319° |
| 2026-04-29 17:10 | 44.54870 | 15.88391 | 38027 ft | 395 kts | 318° |
| 2026-04-29 17:11 | 44.59214 | 15.83676 | 38088 ft | 396 kts | 319° |
| 2026-04-29 17:11 | 44.63574 | 15.78933 | 38107 ft | 396 kts | 319° |
| 2026-04-29 17:12 | 44.67921 | 15.74198 | 38104 ft | 397 kts | 319° |
| 2026-04-29 17:12 | 44.71546 | 15.70242 | 38096 ft | 397 kts | 318° |
| 2026-04-29 17:13 | 44.76619 | 15.64692 | 38110 ft | 396 kts | 319° |
| 2026-04-29 17:13 | 44.80953 | 15.59940 | 38112 ft | 396 kts | 319° |
| 2026-04-29 17:14 | 44.85305 | 15.55161 | 38111 ft | 396 kts | 318° |
| 2026-04-29 17:14 | 44.89614 | 15.50419 | 38114 ft | 396 kts | 319° |
| 2026-04-29 17:15 | 44.93949 | 15.45640 | 38116 ft | 396 kts | 319° |
| 2026-04-29 17:15 | 44.98289 | 15.40845 | 38113 ft | 395 kts | 318° |
| 2026-04-29 17:16 | 45.02603 | 15.36069 | 38123 ft | 396 kts | 318° |
| 2026-04-29 17:16 | 45.06939 | 15.31242 | 38117 ft | 395 kts | 318° |
| 2026-04-29 17:17 | 45.11269 | 15.26412 | 38118 ft | 396 kts | 318° |
| 2026-04-29 17:17 | 45.15615 | 15.21597 | 38136 ft | 396 kts | 318° |
| 2026-04-29 17:18 | 45.19932 | 15.16791 | 38118 ft | 396 kts | 318° |
| 2026-04-29 17:18 | 45.24251 | 15.11964 | 38117 ft | 396 kts | 318° |
| 2026-04-29 17:19 | 45.28566 | 15.07127 | 38124 ft | 396 kts | 318° |
| 2026-04-29 17:19 | 45.32879 | 15.02280 | 38116 ft | 395 kts | 318° |
| 2026-04-29 17:20 | 45.37169 | 14.97442 | 38105 ft | 395 kts | 318° |
| 2026-04-29 17:20 | 45.41469 | 14.92590 | 38109 ft | 396 kts | 318° |
| 2026-04-29 17:21 | 45.45713 | 14.87603 | 38117 ft | 395 kts | 315° |
| 2026-04-29 17:21 | 45.49572 | 14.82107 | 38120 ft | 392 kts | 310° |
| 2026-04-29 17:22 | 45.53214 | 14.76349 | 38138 ft | 393 kts | 309° |
| 2026-04-29 17:22 | 45.56850 | 14.70555 | 38140 ft | 393 kts | 310° |
| 2026-04-29 17:23 | 45.60469 | 14.64776 | 38134 ft | 393 kts | 310° |
| 2026-04-29 17:23 | 45.64104 | 14.58959 | 38120 ft | 392 kts | 309° |
| 2026-04-29 17:24 | 45.67733 | 14.53137 | 38127 ft | 393 kts | 309° |
| 2026-04-29 17:24 | 45.71358 | 14.47305 | 38123 ft | 393 kts | 310° |
| 2026-04-29 17:25 | 45.74979 | 14.41471 | 38127 ft | 393 kts | 309° |
| 2026-04-29 17:25 | 45.78586 | 14.35646 | 38127 ft | 393 kts | 310° |
| 2026-04-29 17:26 | 45.82204 | 14.29769 | 38128 ft | 392 kts | 309° |
| 2026-04-29 17:26 | 45.85755 | 14.23993 | 38137 ft | 393 kts | 309° |
| 2026-04-29 17:27 | 45.89375 | 14.18101 | 38120 ft | 393 kts | 309° |
| 2026-04-29 17:27 | 45.92978 | 14.12224 | 38165 ft | 394 kts | 309° |
| 2026-04-29 17:28 | 45.96585 | 14.06337 | 38171 ft | 394 kts | 309° |
| 2026-04-29 17:28 | 46.00197 | 14.00430 | 38134 ft | 394 kts | 309° |
| 2026-04-29 17:29 | 46.03812 | 13.94502 | 38150 ft | 394 kts | 309° |
| 2026-04-29 17:29 | 46.06821 | 13.89561 | 38119 ft | 394 kts | 309° |
| 2026-04-29 17:30 | 46.11021 | 13.82654 | 38134 ft | 394 kts | 310° |
| 2026-04-29 17:30 | 46.14640 | 13.76730 | 38089 ft | 394 kts | 310° |
| 2026-04-29 17:31 | 46.18238 | 13.70809 | 38131 ft | 394 kts | 310° |
| 2026-04-29 17:31 | 46.21840 | 13.64855 | 38139 ft | 394 kts | 309° |